Time;durP1;ratioP1;P1;durP2;ratioP2;P2;SDS_P1;SDS_P2;PMS_P1;PMS_P2;Temp;Humidity;BMP_temperature;BMP_pressure;BME280_temperature;BME280_humidity;BME280_pressure;Samples;Min_cycle;Max_cycle;Signal;HPM_P1;HPM_P2
2021/04/02 00:00:37;;;;;;;15.98;5.07;;;;;;;;;;4973986;28;20133;-81
2021/04/02 00:03:06;;;;;;;15.75;4.97;;;;;;;;;;4991469;28;20046;-79
2021/04/02 00:05:32;;;;;;;21.15;5.07;;;;;;;;;;4990621;28;20042;-82
2021/04/02 00:07:58;;;;;;;17.55;4.90;;;;;;;;;;4991556;28;20056;-81
2021/04/02 00:10:25;;;;;;;16.15;3.72;;;;;;;;;;4995945;28;20034;-78
2021/04/02 00:12:51;;;;;;;17.38;4.88;;;;;;;;;;4997472;28;20566;-84
2021/04/02 00:15:20;;;;;;;18.50;4.38;;;;;;;;;;4995592;28;20034;-84
2021/04/02 00:17:47;;;;;;;19.20;3.80;;;;;;;;;;4988057;28;20137;-82
2021/04/02 00:20:15;;;;;;;11.55;3.33;;;;;;;;;;4991963;28;20022;-82
2021/04/02 00:22:41;;;;;;;18.70;4.38;;;;;;;;;;4994564;28;20022;-82
2021/04/02 00:25:08;;;;;;;23.42;4.00;;;;;;;;;;4994201;28;20049;-80
2021/04/02 00:27:35;;;;;;;16.48;3.28;;;;;;;;;;4994603;28;20026;-82
2021/04/02 00:30:01;;;;;;;14.13;4.15;;;;;;;;;;4994238;28;20097;-80
2021/04/02 00:32:27;;;;;;;14.93;3.08;;;;;;;;;;4978034;28;20041;-82
2021/04/02 00:34:53;;;;;;;13.25;3.20;;;;;;;;;;4993755;28;20089;-84
2021/04/02 00:37:20;;;;;;;13.43;2.80;;;;;;;;;;4992613;28;20043;-81
2021/04/02 00:39:46;;;;;;;21.90;3.90;;;;;;;;;;4993511;28;20023;-82
2021/04/02 00:42:12;;;;;;;19.15;3.30;;;;;;;;;;4994769;28;20501;-82
2021/04/02 00:44:39;;;;;;;18.00;3.10;;;;;;;;;;4991575;28;20030;-81
2021/04/02 00:47:05;;;;;;;14.48;3.10;;;;;;;;;;4989915;28;20034;-81
2021/04/02 00:49:31;;;;;;;18.42;3.53;;;;;;;;;;4994803;28;20026;-81
2021/04/02 00:51:57;;;;;;;18.40;3.35;;;;;;;;;;4994422;28;20069;-81
2021/04/02 00:54:23;;;;;;;15.93;3.22;;;;;;;;;;4985106;28;20512;-82
2021/04/02 00:56:49;;;;;;;16.80;2.50;;;;;;;;;;4987345;28;20034;-82
2021/04/02 00:59:15;;;;;;;20.35;4.43;;;;;;;;;;4994468;28;20105;-86
2021/04/02 01:01:41;;;;;;;11.27;2.38;;;;;;;;;;4994768;28;20031;-81
2021/04/02 01:04:07;;;;;;;11.77;2.70;;;;;;;;;;4985671;28;20077;-82
2021/04/02 01:06:34;;;;;;;13.55;2.58;;;;;;;;;;4991442;28;20027;-78
2021/04/02 01:09:00;;;;;;;13.88;3.35;;;;;;;;;;4993776;28;20480;-82
2021/04/02 01:11:27;;;;;;;16.10;2.58;;;;;;;;;;4991534;28;20516;-82
2021/04/02 01:13:54;;;;;;;15.32;2.75;;;;;;;;;;4993954;28;20015;-81
2021/04/02 01:16:21;;;;;;;21.70;3.33;;;;;;;;;;4992605;28;20030;-81
2021/04/02 01:18:51;;;;;;;17.88;2.95;;;;;;;;;;4993343;28;20027;-80
2021/04/02 01:21:25;;;;;;;12.18;2.85;;;;;;;;;;4992274;28;20031;-83
2021/04/02 01:23:57;;;;;;;11.85;2.47;;;;;;;;;;4992524;28;20030;-81
2021/04/02 01:26:46;;;;;;;15.25;2.95;;;;;;;;;;4983119;28;20019;-81
2021/04/02 01:29:17;;;;;;;9.23;2.80;;;;;;;;;;4983116;28;20054;-78
2021/04/02 01:31:44;;;;;;;13.70;2.38;;;;;;;;;;4991458;28;20038;-82
2021/04/02 01:34:11;;;;;;;11.32;2.63;;;;;;;;;;4992504;28;20026;-82
2021/04/02 01:36:40;;;;;;;8.35;2.30;;;;;;;;;;4990756;28;20033;-82
2021/04/02 01:39:07;;;;;;;18.73;3.85;;;;;;;;;;4993773;28;20419;-86
2021/04/02 01:41:36;;;;;;;15.35;2.70;;;;;;;;;;4993332;28;20049;-81
2021/04/02 01:44:02;;;;;;;10.27;2.35;;;;;;;;;;4992560;28;20105;-81
2021/04/02 01:46:29;;;;;;;15.40;3.10;;;;;;;;;;4989757;28;20019;-79
2021/04/02 01:48:57;;;;;;;13.05;2.03;;;;;;;;;;4994095;28;20057;-78
2021/04/02 01:51:24;;;;;;;8.38;3.55;;;;;;;;;;4993635;28;20050;-80
2021/04/02 01:53:52;;;;;;;14.80;2.53;;;;;;;;;;4986462;28;20030;-83
2021/04/02 01:56:19;;;;;;;16.80;3.20;;;;;;;;;;4987058;28;20019;-79
2021/04/02 01:58:46;;;;;;;23.67;3.30;;;;;;;;;;4993661;28;20034;-82
2021/04/02 02:01:13;;;;;;;13.23;2.10;;;;;;;;;;4987726;28;20018;-82
2021/04/02 02:03:40;;;;;;;17.73;2.72;;;;;;;;;;4992457;28;20452;-84
2021/04/02 02:06:08;;;;;;;11.68;2.38;;;;;;;;;;4992556;28;20702;-82
2021/04/02 02:08:35;;;;;;;12.32;3.03;;;;;;;;;;4993123;28;20110;-82
2021/04/02 02:11:07;;;;;;;12.25;2.90;;;;;;;;;;4990690;28;20741;-82
2021/04/02 02:13:34;;;;;;;19.38;2.75;;;;;;;;;;4989812;28;20260;-81
2021/04/02 02:16:03;;;;;;;15.50;3.33;;;;;;;;;;4989141;28;20186;-80
2021/04/02 02:18:29;;;;;;;10.35;3.10;;;;;;;;;;4993646;28;20050;-82
2021/04/02 02:20:56;;;;;;;11.57;2.78;;;;;;;;;;4987975;28;20082;-81
2021/04/02 02:23:22;;;;;;;14.68;2.97;;;;;;;;;;4989101;28;20029;-80
2021/04/02 02:25:48;;;;;;;16.45;3.55;;;;;;;;;;4989897;28;20420;-81
2021/04/02 02:28:15;;;;;;;17.05;3.63;;;;;;;;;;4992477;28;20085;-83
2021/04/02 02:30:43;;;;;;;15.88;4.40;;;;;;;;;;4991839;28;20073;-81
2021/04/02 02:33:09;;;;;;;13.35;3.55;;;;;;;;;;4985205;28;20027;-79
2021/04/02 02:35:36;;;;;;;13.18;3.47;;;;;;;;;;4990650;28;20109;-81
2021/04/02 02:38:02;;;;;;;24.77;4.40;;;;;;;;;;4992507;28;20030;-82
2021/04/02 02:40:32;;;;;;;18.27;3.70;;;;;;;;;;4987239;28;20030;-81
2021/04/02 02:42:59;;;;;;;12.48;3.35;;;;;;;;;;4990290;28;20062;-83
2021/04/02 02:45:26;;;;;;;15.65;3.10;;;;;;;;;;4990477;28;20076;-81
2021/04/02 02:47:52;;;;;;;15.35;3.78;;;;;;;;;;4992563;28;20034;-80
2021/04/02 02:50:23;;;;;;;12.20;3.75;;;;;;;;;;4991269;28;20045;-82
2021/04/02 02:52:50;;;;;;;14.60;3.10;;;;;;;;;;4988276;28;20046;-86
2021/04/02 02:55:17;;;;;;;16.63;3.00;;;;;;;;;;4986786;28;20034;-82
2021/04/02 02:57:44;;;;;;;14.10;3.63;;;;;;;;;;4992371;28;20038;-82
2021/04/02 03:00:12;;;;;;;16.73;3.80;;;;;;;;;;4990425;28;20543;-80
2021/04/02 03:02:39;;;;;;;16.70;3.78;;;;;;;;;;4990891;28;20026;-81
2021/04/02 03:05:06;;;;;;;13.77;3.03;;;;;;;;;;4987973;28;20023;-80
2021/04/02 03:07:33;;;;;;;13.98;2.70;;;;;;;;;;4989133;28;20027;-82
2021/04/02 03:10:00;;;;;;;18.50;2.40;;;;;;;;;;4987711;28;20177;-80
2021/04/02 03:12:28;;;;;;;10.75;2.78;;;;;;;;;;4987328;28;20038;-80
2021/04/02 03:14:54;;;;;;;14.50;2.90;;;;;;;;;;4988973;28;20034;-81
2021/04/02 03:17:22;;;;;;;16.05;2.95;;;;;;;;;;4991617;28;20030;-83
2021/04/02 03:19:48;;;;;;;16.65;2.17;;;;;;;;;;4991862;28;20015;-81
2021/04/02 03:22:16;;;;;;;12.93;2.55;;;;;;;;;;4991759;28;20022;-86
2021/04/02 03:24:42;;;;;;;10.50;2.30;;;;;;;;;;4990532;28;20030;-81
2021/04/02 03:27:10;;;;;;;10.80;3.20;;;;;;;;;;4977308;28;20030;-81
2021/04/02 03:29:36;;;;;;;12.27;2.50;;;;;;;;;;4992210;28;20049;-80
2021/04/02 03:32:09;;;;;;;10.55;2.38;;;;;;;;;;4990561;28;20089;-81
2021/04/02 03:34:36;;;;;;;13.13;2.20;;;;;;;;;;4990441;28;20049;-79
2021/04/02 03:37:05;;;;;;;12.82;2.50;;;;;;;;;;4988054;28;20600;-77
2021/04/02 03:39:32;;;;;;;10.30;2.78;;;;;;;;;;4991702;28;20030;-78
2021/04/02 03:41:59;;;;;;;10.30;1.73;;;;;;;;;;4986329;28;20025;-80
2021/04/02 03:44:26;;;;;;;11.57;2.40;;;;;;;;;;4988486;28;20154;-79
2021/04/02 03:46:53;;;;;;;12.82;2.55;;;;;;;;;;4987883;28;20018;-81
2021/04/02 03:49:23;;;;;;;9.75;1.88;;;;;;;;;;4973617;28;20015;-79
2021/04/02 03:51:50;;;;;;;11.75;2.38;;;;;;;;;;4988769;28;20022;-79
2021/04/02 03:54:17;;;;;;;8.13;1.95;;;;;;;;;;4988170;28;20396;-79
2021/04/02 03:56:44;;;;;;;7.95;1.88;;;;;;;;;;4988308;28;20050;-78
2021/04/02 03:59:11;;;;;;;14.30;2.22;;;;;;;;;;4989085;28;20024;-80
2021/04/02 04:01:39;;;;;;;13.40;3.35;;;;;;;;;;4990554;28;20093;-81
2021/04/02 04:04:05;;;;;;;17.63;2.80;;;;;;;;;;4985868;28;20034;-78
2021/04/02 04:06:31;;;;;;;15.65;2.65;;;;;;;;;;4984673;28;20516;-79
2021/04/02 04:09:00;;;;;;;12.65;2.85;;;;;;;;;;4985366;28;20091;-78
2021/04/02 04:11:27;;;;;;;14.48;2.72;;;;;;;;;;4987752;28;20034;-79
2021/04/02 04:13:54;;;;;;;10.32;2.40;;;;;;;;;;4989339;28;20031;-80
2021/04/02 04:16:21;;;;;;;10.35;1.95;;;;;;;;;;4989138;28;20114;-79
2021/04/02 04:18:48;;;;;;;10.60;2.30;;;;;;;;;;4986075;28;20034;-77
2021/04/02 04:21:15;;;;;;;10.63;2.22;;;;;;;;;;4990308;28;20081;-78
2021/04/02 04:23:42;;;;;;;14.45;2.38;;;;;;;;;;4980394;28;20030;-81
2021/04/02 04:26:10;;;;;;;17.70;2.50;;;;;;;;;;4984833;28;20027;-82
2021/04/02 04:28:37;;;;;;;17.88;2.17;;;;;;;;;;4985819;28;20038;-79
2021/04/02 04:31:06;;;;;;;13.20;2.65;;;;;;;;;;4979155;28;20042;-76
2021/04/02 04:33:34;;;;;;;8.80;1.75;;;;;;;;;;4977246;28;20528;-83
2021/04/02 04:36:00;;;;;;;14.57;2.35;;;;;;;;;;4990457;28;20108;-77
2021/04/02 04:38:27;;;;;;;14.48;2.20;;;;;;;;;;4990574;28;20030;-78
2021/04/02 04:40:54;;;;;;;17.48;2.25;;;;;;;;;;4990758;28;20050;-77
2021/04/02 04:43:20;;;;;;;11.70;1.98;;;;;;;;;;4976458;28;20096;-82
2021/04/02 04:45:46;;;;;;;18.25;3.58;;;;;;;;;;4990905;28;20018;-82
2021/04/02 04:48:13;;;;;;;12.07;2.70;;;;;;;;;;4990929;28;20508;-77
2021/04/02 04:50:39;;;;;;;15.05;2.28;;;;;;;;;;4991645;28;20030;-79
2021/04/02 04:53:07;;;;;;;14.18;2.75;;;;;;;;;;4987428;28;20027;-79
2021/04/02 04:55:35;;;;;;;12.15;2.05;;;;;;;;;;4989163;28;20029;-82
2021/04/02 04:58:02;;;;;;;11.25;1.83;;;;;;;;;;4997654;28;20034;-79
2021/04/02 05:00:30;;;;;;;19.17;2.92;;;;;;;;;;4994253;28;20112;-79
2021/04/02 05:02:57;;;;;;;12.25;2.63;;;;;;;;;;4992939;28;20034;-79
2021/04/02 05:05:26;;;;;;;14.50;1.98;;;;;;;;;;4993096;28;20026;-80
2021/04/02 05:07:53;;;;;;;13.48;2.33;;;;;;;;;;4974588;28;20033;-78
2021/04/02 05:10:20;;;;;;;12.85;2.08;;;;;;;;;;4994669;28;20034;-80
2021/04/02 05:12:46;;;;;;;16.48;2.70;;;;;;;;;;4992851;28;20038;-81
2021/04/02 05:15:13;;;;;;;17.08;2.60;;;;;;;;;;4993573;28;20117;-78
2021/04/02 05:17:39;;;;;;;11.20;2.08;;;;;;;;;;4994203;28;20113;-79
2021/04/02 05:20:06;;;;;;;11.73;2.17;;;;;;;;;;4989648;28;20045;-78
2021/04/02 05:22:32;;;;;;;14.50;2.70;;;;;;;;;;4992824;28;20022;-81
2021/04/02 05:24:58;;;;;;;6.53;1.55;;;;;;;;;;4992058;28;20496;-79
2021/04/02 05:27:26;;;;;;;14.88;2.70;;;;;;;;;;4993735;28;20026;-77
2021/04/02 05:29:52;;;;;;;20.60;2.42;;;;;;;;;;4976640;28;20038;-78
2021/04/02 05:32:18;;;;;;;11.30;1.85;;;;;;;;;;4992935;28;20034;-78
2021/04/02 05:34:44;;;;;;;13.30;2.03;;;;;;;;;;4991813;28;20038;-77
2021/04/02 05:37:10;;;;;;;13.30;2.25;;;;;;;;;;4993730;28;20061;-78
2021/04/02 05:39:36;;;;;;;14.27;3.33;;;;;;;;;;4993728;28;20035;-79
2021/04/02 05:42:10;;;;;;;16.50;2.80;;;;;;;;;;4993212;28;20038;-79
2021/04/02 05:44:37;;;;;;;12.77;2.72;;;;;;;;;;4974443;28;20081;-79
2021/04/02 05:47:04;;;;;;;9.95;2.40;;;;;;;;;;4995668;28;20034;-80
2021/04/02 05:49:31;;;;;;;17.33;2.92;;;;;;;;;;4993619;28;20022;-80
2021/04/02 05:51:58;;;;;;;16.50;3.00;;;;;;;;;;4990539;28;20038;-82
2021/04/02 05:54:28;;;;;;;11.65;1.73;;;;;;;;;;4991683;28;20026;-78
2021/04/02 05:56:54;;;;;;;12.88;2.13;;;;;;;;;;4987543;28;20026;-78
2021/04/02 05:59:21;;;;;;;10.45;2.72;;;;;;;;;;4993121;28;20033;-79
2021/04/02 06:01:47;;;;;;;15.13;2.53;;;;;;;;;;4991813;28;20034;-78
2021/04/02 06:04:13;;;;;;;13.55;2.80;;;;;;;;;;4991080;28;20061;-79
2021/04/02 06:06:40;;;;;;;10.48;2.50;;;;;;;;;;4992262;28;20126;-78
2021/04/02 06:09:06;;;;;;;11.95;2.45;;;;;;;;;;4975106;28;20034;-78
2021/04/02 06:11:32;;;;;;;15.35;2.20;;;;;;;;;;4992024;28;20030;-81
2021/04/02 06:13:58;;;;;;;14.38;2.00;;;;;;;;;;4991642;28;20026;-77
2021/04/02 06:16:24;;;;;;;12.27;2.15;;;;;;;;;;4993293;28;20121;-78
2021/04/02 06:18:55;;;;;;;14.70;2.45;;;;;;;;;;4990207;28;20030;-78
2021/04/02 06:21:24;;;;;;;13.48;1.88;;;;;;;;;;4989285;28;20029;-78
2021/04/02 06:23:50;;;;;;;10.45;1.80;;;;;;;;;;4991285;28;20030;-80
2021/04/02 06:26:16;;;;;;;16.90;3.22;;;;;;;;;;4992102;28;20033;-81
2021/04/02 06:28:43;;;;;;;12.60;2.10;;;;;;;;;;4993167;28;20026;-80
2021/04/02 06:31:16;;;;;;;13.95;2.53;;;;;;;;;;4993148;28;20038;-80
2021/04/02 06:34:05;;;;;;;19.60;2.65;;;;;;;;;;4987069;28;20316;-79
2021/04/02 06:36:31;;;;;;;14.18;1.95;;;;;;;;;;4992114;28;20031;-79
2021/04/02 06:38:57;;;;;;;12.35;2.17;;;;;;;;;;4990192;28;20086;-78
2021/04/02 06:41:24;;;;;;;16.15;3.38;;;;;;;;;;4972664;28;20022;-79
2021/04/02 06:43:52;;;;;;;10.02;2.03;;;;;;;;;;4974405;28;20030;-77
2021/04/02 06:46:18;;;;;;;11.43;1.70;;;;;;;;;;4992718;28;20018;-78
2021/04/02 06:48:44;;;;;;;16.20;2.35;;;;;;;;;;4991722;28;20505;-79
2021/04/02 06:51:11;;;;;;;19.67;3.17;;;;;;;;;;4992513;28;20035;-81
2021/04/02 06:53:38;;;;;;;16.08;2.78;;;;;;;;;;4991035;28;20034;-79
2021/04/02 06:56:07;;;;;;;13.63;2.65;;;;;;;;;;4983468;28;20026;-78
2021/04/02 06:58:33;;;;;;;19.67;2.58;;;;;;;;;;4991240;28;20035;-79
2021/04/02 07:01:03;;;;;;;17.77;2.20;;;;;;;;;;4985360;28;20029;-78
2021/04/02 07:03:33;;;;;;;12.75;1.77;;;;;;;;;;4986927;28;20015;-79
2021/04/02 07:06:01;;;;;;;12.02;1.85;;;;;;;;;;4990565;28;20101;-79
2021/04/02 07:08:27;;;;;;;14.85;1.80;;;;;;;;;;4976694;28;20109;-78
2021/04/02 07:10:57;;;;;;;11.35;2.22;;;;;;;;;;4991472;28;20049;-79
2021/04/02 07:13:27;;;;;;;12.55;2.15;;;;;;;;;;4970847;28;20041;-82
2021/04/02 07:15:53;;;;;;;11.60;2.08;;;;;;;;;;4990956;28;20030;-81
2021/04/02 07:18:20;;;;;;;10.75;2.10;;;;;;;;;;4972707;28;20041;-81
2021/04/02 07:20:48;;;;;;;17.80;2.55;;;;;;;;;;4990986;28;20031;-82
2021/04/02 07:23:15;;;;;;;15.07;2.88;;;;;;;;;;4989828;28;20026;-81
2021/04/02 07:25:41;;;;;;;8.52;2.00;;;;;;;;;;4975935;28;20030;-79
2021/04/02 07:28:07;;;;;;;16.75;2.42;;;;;;;;;;4992011;28;20037;-77
2021/04/02 07:30:35;;;;;;;8.07;1.88;;;;;;;;;;4991238;28;20125;-81
2021/04/02 07:33:02;;;;;;;15.98;2.20;;;;;;;;;;4990098;28;20466;-80
2021/04/02 07:35:28;;;;;;;15.13;2.47;;;;;;;;;;4973650;28;20026;-74
2021/04/02 07:37:56;;;;;;;18.17;2.65;;;;;;;;;;4999071;28;20042;-77
2021/04/02 07:40:27;;;;;;;8.93;2.08;;;;;;;;;;4993290;28;20112;-80
2021/04/02 07:42:54;;;;;;;15.33;2.83;;;;;;;;;;4985160;28;20133;-79
2021/04/02 07:45:22;;;;;;;15.55;2.53;;;;;;;;;;4986551;28;20355;-80
2021/04/02 07:47:52;;;;;;;16.23;3.45;;;;;;;;;;4987645;28;20496;-80
2021/04/02 07:50:33;;;;;;;21.83;2.65;;;;;;;;;;4985969;28;20030;-78
2021/04/02 07:52:59;;;;;;;11.27;2.80;;;;;;;;;;4986536;28;20427;-80
2021/04/02 07:55:25;;;;;;;14.10;2.95;;;;;;;;;;4982855;28;20577;-78
2021/04/02 07:57:54;;;;;;;14.73;3.17;;;;;;;;;;4986260;28;20538;-76
2021/04/02 08:00:27;;;;;;;18.52;2.92;;;;;;;;;;4980343;28;20058;-74
2021/04/02 08:03:06;;;;;;;13.02;3.33;;;;;;;;;;4978719;28;20316;-78
2021/04/02 08:05:32;;;;;;;18.90;3.28;;;;;;;;;;4975605;28;20030;-74
2021/04/02 08:07:58;;;;;;;12.88;2.75;;;;;;;;;;4961972;28;20042;-76
2021/04/02 08:10:25;;;;;;;15.15;2.97;;;;;;;;;;4979295;28;20034;-77
2021/04/02 08:12:51;;;;;;;16.42;3.58;;;;;;;;;;4984279;28;20022;-75
2021/04/02 08:15:17;;;;;;;18.98;3.25;;;;;;;;;;4988090;28;20056;-77
2021/04/02 08:17:44;;;;;;;16.20;2.92;;;;;;;;;;4986543;28;20027;-77
2021/04/02 08:20:10;;;;;;;15.38;2.20;;;;;;;;;;4970670;28;20073;-74
2021/04/02 08:22:37;;;;;;;16.38;2.78;;;;;;;;;;4985242;28;20138;-76
2021/04/02 08:25:07;;;;;;;11.45;3.22;;;;;;;;;;4988970;28;20030;-78
2021/04/02 08:27:33;;;;;;;16.58;2.92;;;;;;;;;;4988661;28;20022;-77
2021/04/02 08:30:06;;;;;;;15.25;2.90;;;;;;;;;;4987832;28;20030;-79
2021/04/02 08:32:36;;;;;;;14.35;2.72;;;;;;;;;;4993749;28;20028;-81
2021/04/02 08:35:03;;;;;;;11.38;2.50;;;;;;;;;;4992560;28;20046;-77
2021/04/02 08:37:29;;;;;;;8.38;2.50;;;;;;;;;;4993883;28;20054;-77
2021/04/02 08:40:00;;;;;;;8.98;2.60;;;;;;;;;;4992426;28;20030;-77
2021/04/02 08:42:29;;;;;;;10.02;2.58;;;;;;;;;;4988786;28;20112;-79
2021/04/02 08:44:55;;;;;;;16.45;2.55;;;;;;;;;;4986273;28;20049;-80
2021/04/02 08:47:21;;;;;;;15.50;3.15;;;;;;;;;;4994035;28;20030;-79
2021/04/02 08:49:49;;;;;;;15.00;2.92;;;;;;;;;;4990247;28;20060;-78
2021/04/02 08:52:23;;;;;;;10.52;2.30;;;;;;;;;;4993885;28;20022;-79
2021/04/02 08:54:56;;;;;;;17.65;2.75;;;;;;;;;;4992434;28;20085;-79
2021/04/02 08:57:26;;;;;;;21.30;2.97;;;;;;;;;;4992338;28;20086;-78
2021/04/02 08:59:53;;;;;;;16.70;3.78;;;;;;;;;;4993531;28;20516;-77
2021/04/02 09:02:20;;;;;;;10.93;2.55;;;;;;;;;;4992812;28;20507;-77
2021/04/02 09:04:47;;;;;;;13.98;2.75;;;;;;;;;;4990407;28;20022;-77
2021/04/02 09:07:14;;;;;;;8.80;2.47;;;;;;;;;;4994669;28;20033;-78
2021/04/02 09:09:40;;;;;;;13.15;2.83;;;;;;;;;;4993193;28;20030;-77
2021/04/02 09:12:11;;;;;;;22.60;3.67;;;;;;;;;;4991735;28;20425;-78
2021/04/02 09:14:42;;;;;;;15.77;3.22;;;;;;;;;;4990825;28;20038;-78
2021/04/02 09:17:10;;;;;;;14.73;3.45;;;;;;;;;;4989812;28;20037;-74
2021/04/02 09:19:37;;;;;;;19.60;3.45;;;;;;;;;;4991228;28;20038;-78
2021/04/02 09:22:03;;;;;;;18.45;3.25;;;;;;;;;;4992257;28;20393;-78
2021/04/02 09:24:33;;;;;;;10.93;2.40;;;;;;;;;;4988644;28;20054;-77
2021/04/02 09:27:06;;;;;;;9.18;2.53;;;;;;;;;;4970840;28;20389;-77
2021/04/02 09:29:32;;;;;;;10.60;2.95;;;;;;;;;;4988993;28;20038;-77
2021/04/02 09:31:58;;;;;;;18.98;4.07;;;;;;;;;;4996112;28;20030;-76
2021/04/02 09:34:25;;;;;;;27.23;3.15;;;;;;;;;;4998032;28;20029;-77
2021/04/02 09:36:51;;;;;;;9.88;3.00;;;;;;;;;;5015449;28;20015;-80
2021/04/02 09:39:21;;;;;;;18.35;3.65;;;;;;;;;;5001092;28;20031;-78
2021/04/02 09:41:56;;;;;;;12.07;3.03;;;;;;;;;;4975108;28;20027;-77
2021/04/02 09:44:23;;;;;;;8.95;2.45;;;;;;;;;;4988006;28;20526;-77
2021/04/02 09:46:50;;;;;;;13.13;2.67;;;;;;;;;;4991194;28;20030;-80
2021/04/02 09:49:18;;;;;;;15.30;3.42;;;;;;;;;;4988845;28;20068;-80
2021/04/02 09:51:45;;;;;;;15.52;3.17;;;;;;;;;;4990721;28;20030;-74
2021/04/02 09:54:12;;;;;;;11.95;2.90;;;;;;;;;;4987435;28;20467;-80
2021/04/02 09:56:39;;;;;;;17.20;2.92;;;;;;;;;;4975214;28;20129;-80
2021/04/02 09:59:06;;;;;;;12.82;3.05;;;;;;;;;;4989184;28;20037;-77
2021/04/02 10:01:36;;;;;;;12.77;2.63;;;;;;;;;;4989959;28;20105;-77
2021/04/02 10:04:02;;;;;;;18.00;3.95;;;;;;;;;;4988331;28;20026;-77
2021/04/02 10:06:29;;;;;;;11.90;2.72;;;;;;;;;;4990134;28;20026;-78
2021/04/02 10:08:55;;;;;;;15.05;3.53;;;;;;;;;;4989809;28;20037;-79
2021/04/02 10:11:21;;;;;;;17.15;3.35;;;;;;;;;;4986136;28;20504;-78
2021/04/02 10:13:47;;;;;;;7.18;2.10;;;;;;;;;;4986867;28;20030;-78
2021/04/02 10:16:13;;;;;;;20.08;3.45;;;;;;;;;;4986818;28;20048;-78
2021/04/02 10:18:39;;;;;;;15.85;2.95;;;;;;;;;;4989849;28;20116;-78
2021/04/02 10:21:07;;;;;;;7.53;2.22;;;;;;;;;;4972500;28;20031;-77
2021/04/02 10:23:33;;;;;;;14.88;3.45;;;;;;;;;;4987136;28;20030;-76
2021/04/02 10:26:00;;;;;;;10.15;2.13;;;;;;;;;;4985150;28;20033;-81
2021/04/02 10:28:26;;;;;;;27.85;6.43;;;;;;;;;;4987158;28;20061;-79
2021/04/02 10:30:53;;;;;;;15.30;3.15;;;;;;;;;;4984922;28;20054;-78
2021/04/02 10:33:19;;;;;;;13.00;2.78;;;;;;;;;;4988539;28;20038;-75
2021/04/02 10:35:46;;;;;;;15.98;2.88;;;;;;;;;;4975406;28;20100;-78
2021/04/02 10:38:12;;;;;;;17.98;3.15;;;;;;;;;;4979318;28;20328;-75
2021/04/02 10:40:39;;;;;;;15.30;2.40;;;;;;;;;;4988061;28;20026;-74
2021/04/02 10:43:05;;;;;;;14.13;2.28;;;;;;;;;;4986788;28;20034;-78
2021/04/02 10:45:31;;;;;;;12.65;2.72;;;;;;;;;;4981807;28;20027;-75
2021/04/02 10:47:57;;;;;;;14.60;2.30;;;;;;;;;;4988094;28;20041;-76
2021/04/02 10:50:24;;;;;;;14.90;2.60;;;;;;;;;;4972201;28;20038;-75
2021/04/02 10:52:50;;;;;;;14.93;3.15;;;;;;;;;;4984760;28;20500;-73
2021/04/02 10:55:17;;;;;;;13.93;3.33;;;;;;;;;;4984189;28;20014;-74
2021/04/02 10:57:43;;;;;;;14.57;2.25;;;;;;;;;;4984202;28;20046;-73
2021/04/02 11:00:10;;;;;;;20.05;2.38;;;;;;;;;;4982314;28;20397;-71
2021/04/02 11:02:36;;;;;;;14.32;2.88;;;;;;;;;;4985438;28;20449;-73
2021/04/02 11:05:03;;;;;;;20.52;2.97;;;;;;;;;;4980731;28;20026;-73
2021/04/02 11:07:29;;;;;;;11.43;2.25;;;;;;;;;;4979387;28;20033;-74
2021/04/02 11:09:55;;;;;;;27.10;4.75;;;;;;;;;;4988602;28;20081;-73
2021/04/02 11:12:29;;;;;;;9.48;2.10;;;;;;;;;;4986563;28;20042;-75
2021/04/02 11:14:56;;;;;;;9.60;1.90;;;;;;;;;;4990490;28;20035;-75
2021/04/02 11:17:25;;;;;;;12.48;3.10;;;;;;;;;;4987598;28;20038;-74
2021/04/02 11:19:52;;;;;;;17.27;2.60;;;;;;;;;;4981125;28;20038;-74
2021/04/02 11:22:18;;;;;;;14.32;2.17;;;;;;;;;;4982431;28;20084;-74
2021/04/02 11:24:45;;;;;;;18.42;2.90;;;;;;;;;;4984070;28;20030;-76
2021/04/02 11:27:11;;;;;;;11.93;2.20;;;;;;;;;;4987308;28;20030;-74
2021/04/02 11:29:38;;;;;;;21.98;2.88;;;;;;;;;;4984215;28;20039;-76
2021/04/02 11:32:10;;;;;;;17.08;3.50;;;;;;;;;;4986608;28;20030;-75
2021/04/02 11:34:37;;;;;;;14.07;2.50;;;;;;;;;;4988498;28;20030;-76
2021/04/02 11:37:04;;;;;;;12.75;2.28;;;;;;;;;;4988177;28;20038;-78
2021/04/02 11:39:30;;;;;;;13.23;2.55;;;;;;;;;;4990017;28;20031;-75
2021/04/02 11:41:56;;;;;;;11.75;2.75;;;;;;;;;;4986605;28;20084;-74
2021/04/02 11:44:22;;;;;;;19.90;3.47;;;;;;;;;;4972855;28;20062;-76
2021/04/02 11:46:49;;;;;;;15.15;2.78;;;;;;;;;;4986676;28;20130;-76
2021/04/02 11:49:15;;;;;;;12.45;2.60;;;;;;;;;;4985151;28;20037;-79
2021/04/02 11:51:41;;;;;;;16.30;2.22;;;;;;;;;;4983979;28;20034;-75
2021/04/02 11:54:07;;;;;;;12.85;2.40;;;;;;;;;;4988984;28;20030;-76
2021/04/02 11:56:33;;;;;;;13.73;2.63;;;;;;;;;;4982939;28;20031;-75
2021/04/02 11:58:59;;;;;;;18.38;3.08;;;;;;;;;;4983611;28;22107;-74
2021/04/02 12:01:26;;;;;;;12.63;3.03;;;;;;;;;;4987671;28;20026;-74
2021/04/02 12:03:52;;;;;;;10.50;2.40;;;;;;;;;;4985605;28;20531;-73
2021/04/02 12:06:18;;;;;;;17.83;2.75;;;;;;;;;;4967778;28;20038;-78
2021/04/02 12:08:44;;;;;;;16.98;2.53;;;;;;;;;;4986636;28;20042;-77
2021/04/02 12:11:10;;;;;;;13.63;2.28;;;;;;;;;;4988941;28;20069;-74
2021/04/02 12:13:36;;;;;;;10.50;2.40;;;;;;;;;;4975180;28;20233;-74
2021/04/02 12:16:02;;;;;;;14.05;2.45;;;;;;;;;;4988894;28;20424;-76
2021/04/02 12:18:28;;;;;;;19.95;2.67;;;;;;;;;;4983448;28;20065;-75
2021/04/02 12:20:55;;;;;;;13.82;3.15;;;;;;;;;;4986904;28;20441;-77
2021/04/02 12:23:21;;;;;;;17.88;3.33;;;;;;;;;;4986017;28;20034;-77
2021/04/02 12:25:47;;;;;;;15.38;2.42;;;;;;;;;;4988584;28;20117;-76
2021/04/02 12:28:13;;;;;;;14.98;2.20;;;;;;;;;;4981856;28;20173;-81
2021/04/02 12:30:39;;;;;;;12.50;2.33;;;;;;;;;;4983671;28;20054;-74
2021/04/02 12:33:06;;;;;;;13.48;2.67;;;;;;;;;;4984721;28;20065;-77
2021/04/02 12:35:32;;;;;;;15.82;2.95;;;;;;;;;;4979584;28;20050;-78
2021/04/02 12:37:58;;;;;;;16.75;2.83;;;;;;;;;;4980455;28;20041;-77
2021/04/02 12:40:25;;;;;;;10.02;1.75;;;;;;;;;;4981540;28;20014;-78
2021/04/02 12:42:51;;;;;;;10.25;1.88;;;;;;;;;;4980527;28;20085;-74
2021/04/02 12:45:17;;;;;;;15.07;2.78;;;;;;;;;;4980103;28;20057;-75
2021/04/02 12:47:44;;;;;;;19.58;2.63;;;;;;;;;;4979484;28;20117;-77
2021/04/02 12:50:12;;;;;;;16.75;2.70;;;;;;;;;;4979434;28;20031;-78
2021/04/02 12:52:39;;;;;;;12.98;3.03;;;;;;;;;;4964296;28;20061;-77
2021/04/02 12:55:06;;;;;;;12.43;3.15;;;;;;;;;;4987603;28;20027;-76
2021/04/02 12:57:32;;;;;;;21.20;3.78;;;;;;;;;;4977807;28;20041;-75
2021/04/02 12:59:58;;;;;;;19.50;4.20;;;;;;;;;;4963880;28;20110;-75
2021/04/02 13:02:24;;;;;;;16.48;2.85;;;;;;;;;;4980246;28;20468;-75
2021/04/02 13:04:50;;;;;;;13.73;2.58;;;;;;;;;;4962963;28;20536;-76
2021/04/02 13:07:16;;;;;;;19.80;2.83;;;;;;;;;;4977606;28;20113;-73
2021/04/02 13:09:42;;;;;;;16.13;2.50;;;;;;;;;;4981162;28;20507;-77
2021/04/02 13:12:09;;;;;;;11.40;2.50;;;;;;;;;;4979933;28;20026;-78
2021/04/02 13:14:36;;;;;;;11.57;2.30;;;;;;;;;;4982735;28;20054;-75
2021/04/02 13:17:06;;;;;;;18.85;3.10;;;;;;;;;;4977080;28;20042;-76
2021/04/02 13:19:32;;;;;;;9.70;2.97;;;;;;;;;;4963976;28;20624;-79
2021/04/02 13:21:58;;;;;;;21.23;4.30;;;;;;;;;;4986172;28;20026;-77
2021/04/02 13:24:24;;;;;;;16.95;3.72;;;;;;;;;;4985118;28;20026;-78
2021/04/02 13:26:50;;;;;;;20.05;2.50;;;;;;;;;;4986350;28;20014;-77
2021/04/02 13:29:16;;;;;;;15.60;2.60;;;;;;;;;;4989079;28;20073;-77
2021/04/02 13:31:42;;;;;;;17.83;2.80;;;;;;;;;;4989277;28;20050;-81
2021/04/02 13:34:08;;;;;;;16.33;2.60;;;;;;;;;;4996439;28;20026;-76
2021/04/02 13:36:34;;;;;;;11.40;2.67;;;;;;;;;;4984926;28;20097;-76
2021/04/02 13:39:00;;;;;;;17.92;2.75;;;;;;;;;;4996162;28;20049;-77
2021/04/02 13:41:27;;;;;;;25.30;3.00;;;;;;;;;;4995454;28;20018;-74
2021/04/02 13:43:53;;;;;;;16.02;2.78;;;;;;;;;;4989257;28;20092;-77
2021/04/02 13:46:19;;;;;;;10.32;2.92;;;;;;;;;;4988899;28;20109;-77
2021/04/02 13:48:45;;;;;;;14.00;2.80;;;;;;;;;;4987216;28;20030;-79
2021/04/02 13:51:11;;;;;;;22.80;3.33;;;;;;;;;;4986686;28;20023;-79
2021/04/02 13:53:37;;;;;;;18.45;3.13;;;;;;;;;;4987445;28;20081;-76
2021/04/02 13:56:03;;;;;;;18.10;3.05;;;;;;;;;;4976397;28;20030;-73
2021/04/02 13:58:29;;;;;;;9.13;2.00;;;;;;;;;;4983331;28;20030;-73
2021/04/02 14:00:55;;;;;;;13.27;2.40;;;;;;;;;;4987495;28;20046;-75
2021/04/02 14:03:21;;;;;;;18.80;3.47;;;;;;;;;;4996033;28;20026;-77
2021/04/02 14:05:47;;;;;;;11.15;2.40;;;;;;;;;;4992051;28;20026;-76
2021/04/02 14:08:13;;;;;;;14.63;2.53;;;;;;;;;;4987521;28;20019;-78
2021/04/02 14:10:39;;;;;;;15.75;3.00;;;;;;;;;;4989643;28;20034;-76
2021/04/02 14:13:06;;;;;;;12.63;2.50;;;;;;;;;;4971907;28;20027;-76
2021/04/02 14:15:32;;;;;;;18.85;3.30;;;;;;;;;;4972721;28;20117;-77
2021/04/02 14:17:59;;;;;;;15.63;2.50;;;;;;;;;;4983014;28;20026;-77
2021/04/02 14:20:27;;;;;;;19.83;3.90;;;;;;;;;;4986053;28;20045;-76
2021/04/02 14:22:53;;;;;;;13.63;2.17;;;;;;;;;;4985126;28;20474;-74
2021/04/02 14:25:20;;;;;;;18.90;3.45;;;;;;;;;;4986949;28;20485;-73
2021/04/02 14:27:46;;;;;;;22.15;2.55;;;;;;;;;;4991383;28;20030;-76
2021/04/02 14:30:14;;;;;;;13.48;2.72;;;;;;;;;;4994366;28;20038;-76